createdAt,value
2022-08-03T00:00:28.637Z,21.20
2022-08-03T00:03:30.431Z,21.20
2022-08-03T00:06:36.762Z,21.20
2022-08-03T00:09:38.880Z,21.20
2022-08-03T00:12:40.575Z,21.10
2022-08-03T00:15:43.316Z,21.20
2022-08-03T00:18:45.107Z,21.10
2022-08-03T00:21:46.732Z,21.10
2022-08-03T00:24:48.381Z,21.10
2022-08-03T00:27:50.833Z,21.10
2022-08-03T00:30:53.030Z,21.10
2022-08-03T00:33:59.407Z,21.10
2022-08-03T00:37:04.894Z,21.10
2022-08-03T00:40:07.140Z,21.10
2022-08-03T00:43:09.219Z,21.10
2022-08-03T00:46:11.062Z,21.10
2022-08-03T00:49:12.808Z,21.00
2022-08-03T00:52:16.319Z,21.00
2022-08-03T00:55:18.608Z,20.90
2022-08-03T00:58:20.379Z,20.90
2022-08-03T01:01:22.121Z,20.80
2022-08-03T01:04:24.137Z,20.80
2022-08-03T01:07:48.880Z,20.80
2022-08-03T01:11:00.953Z,20.70
2022-08-03T01:14:26.267Z,20.70
2022-08-03T01:18:02.896Z,20.60
2022-08-03T01:21:11.587Z,20.60
2022-08-03T01:24:22.545Z,20.50
2022-08-03T01:28:10.397Z,20.50
2022-08-03T01:31:15.575Z,20.40
2022-08-03T01:34:20.557Z,20.40
2022-08-03T01:37:29.349Z,20.30
2022-08-03T01:40:34.349Z,20.30
2022-08-03T01:44:27.212Z,20.20
2022-08-03T01:47:02.257Z,20.20
2022-08-03T01:50:05.408Z,20.20
2022-08-03T01:53:09.118Z,20.20
2022-08-03T01:56:13.228Z,20.20
2022-08-03T01:59:17.356Z,20.30
2022-08-03T02:02:32.895Z,20.20
2022-08-03T02:05:37.848Z,20.20
2022-08-03T02:08:40.496Z,20.20
2022-08-03T02:11:44.429Z,20.20
2022-08-03T02:15:06.787Z,20.20
2022-08-03T02:18:10.751Z,20.20
2022-08-03T02:21:48.254Z,20.10
2022-08-03T02:24:35.130Z,20.10
2022-08-03T02:27:43.658Z,20.10
2022-08-03T02:30:53.715Z,20.10
2022-08-03T02:34:04.800Z,20.00
2022-08-03T02:37:08.058Z,20.00
2022-08-03T02:40:11.693Z,20.00
2022-08-03T02:43:18.899Z,20.00
2022-08-03T02:46:25.350Z,20.00
2022-08-03T02:49:40.443Z,19.90
2022-08-03T02:52:52.680Z,20.00
2022-08-03T02:55:56.692Z,19.90
2022-08-03T02:58:59.521Z,19.90
2022-08-03T03:02:02.293Z,19.90
2022-08-03T03:05:53.088Z,19.90
2022-08-03T03:08:28.681Z,19.90
2022-08-03T03:11:31.305Z,19.90
2022-08-03T03:14:34.271Z,19.90
2022-08-03T03:17:38.052Z,19.90
2022-08-03T03:20:40.877Z,19.80
2022-08-03T03:23:43.442Z,19.80
2022-08-03T03:26:45.265Z,19.80
2022-08-03T03:29:47.328Z,19.70
2022-08-03T03:32:52.469Z,19.70
2022-08-03T03:35:54.772Z,19.70
2022-08-03T03:38:57.417Z,19.70
2022-08-03T03:42:00.761Z,19.70
2022-08-03T03:45:07.013Z,19.70
2022-08-03T03:48:08.872Z,19.60
2022-08-03T03:51:10.787Z,19.60
2022-08-03T03:54:12.670Z,19.50
2022-08-03T03:57:14.420Z,19.50
2022-08-03T04:00:18.496Z,19.50
2022-08-03T04:03:20.390Z,19.40
2022-08-03T04:06:40.612Z,19.40
2022-08-03T04:10:14.413Z,19.40
2022-08-03T04:13:18.281Z,19.40
2022-08-03T04:16:23.928Z,19.40
2022-08-03T04:19:31.035Z,19.40
2022-08-03T04:22:34.544Z,19.30
2022-08-03T04:25:39.344Z,19.40
2022-08-03T04:28:45.980Z,19.40
2022-08-03T04:31:49.031Z,19.40
2022-08-03T04:34:51.543Z,19.50
2022-08-03T04:37:56.204Z,19.50
2022-08-03T04:40:59.201Z,19.50
2022-08-03T04:44:02.084Z,19.60
2022-08-03T04:47:03.819Z,19.60
2022-08-03T04:50:12.228Z,19.60
2022-08-03T04:53:15.940Z,19.60
2022-08-03T04:56:17.784Z,19.60
2022-08-03T04:59:22.221Z,19.70
2022-08-03T05:02:24.300Z,19.70
2022-08-03T05:05:26.027Z,19.70
2022-08-03T05:08:48.785Z,19.80
2022-08-03T05:11:52.501Z,19.90
2022-08-03T05:14:54.191Z,19.90
2022-08-03T05:17:55.912Z,20.00
2022-08-03T05:20:57.599Z,20.10
2022-08-03T05:23:59.228Z,20.10
2022-08-03T05:27:00.881Z,20.20
2022-08-03T05:30:29.772Z,20.30
2022-08-03T05:33:24.767Z,20.30
2022-08-03T05:36:26.585Z,20.30
2022-08-03T05:39:28.226Z,20.40
2022-08-03T05:42:30.073Z,20.50
2022-08-03T05:45:31.754Z,20.70
2022-08-03T05:48:33.406Z,20.90
2022-08-03T05:51:35.436Z,21.20
2022-08-03T05:54:56.054Z,21.50
2022-08-03T05:58:01.455Z,21.90
2022-08-03T06:01:03.167Z,22.30
2022-08-03T06:04:05.007Z,22.60
2022-08-03T06:07:06.649Z,22.90
2022-08-03T06:10:36.028Z,23.30
2022-08-03T06:13:30.627Z,23.70
2022-08-03T06:16:34.905Z,24.00
2022-08-03T06:19:36.577Z,24.40
2022-08-03T06:22:50.980Z,24.70
2022-08-03T06:25:53.192Z,25.00
2022-08-03T06:28:55.551Z,25.30
2022-08-03T06:31:57.289Z,25.40
2022-08-03T06:34:59.201Z,25.60
2022-08-03T06:38:00.890Z,25.80
2022-08-03T06:41:02.610Z,26.10
2022-08-03T06:44:04.715Z,26.40
2022-08-03T06:47:06.463Z,26.80
2022-08-03T06:50:16.245Z,27.30
2022-08-03T06:53:21.264Z,27.70
2022-08-03T06:56:27.529Z,28.30
2022-08-03T07:00:10.593Z,28.80
2022-08-03T07:02:56.142Z,29.20
2022-08-03T07:05:59.747Z,29.60
2022-08-03T07:09:01.821Z,29.80
2022-08-03T07:12:05.671Z,30.00
2022-08-03T07:15:08.279Z,30.20
2022-08-03T07:18:29.960Z,30.50
2022-08-03T07:21:31.901Z,30.60
2022-08-03T07:24:33.550Z,30.60
2022-08-03T07:27:35.270Z,30.90
2022-08-03T07:30:36.981Z,31.10
2022-08-03T07:33:38.654Z,31.50
2022-08-03T07:36:40.269Z,31.80
2022-08-03T07:39:41.966Z,32.20
2022-08-03T07:42:43.666Z,32.20
2022-08-03T07:45:45.370Z,32.20
2022-08-03T07:48:48.236Z,32.10
2022-08-03T07:52:08.460Z,32.00
2022-08-03T07:55:10.767Z,32.00
2022-08-03T07:58:16.532Z,32.20
2022-08-03T08:01:21.890Z,32.20
2022-08-03T08:04:23.672Z,32.20
2022-08-03T08:07:26.241Z,32.20
2022-08-03T08:10:30.035Z,32.10
2022-08-03T08:13:31.880Z,32.40
2022-08-03T08:16:33.644Z,32.40
2022-08-03T08:19:35.270Z,32.50
2022-08-03T08:22:41.046Z,32.80
2022-08-03T08:25:42.995Z,32.90
2022-08-03T08:28:44.731Z,32.80
2022-08-03T08:31:46.410Z,32.50
2022-08-03T08:34:48.048Z,32.40
2022-08-03T08:37:51.016Z,32.30
2022-08-03T08:40:56.184Z,32.50
2022-08-03T08:44:00.247Z,32.90
2022-08-03T08:47:04.080Z,33.00
2022-08-03T08:50:15.540Z,33.00
2022-08-03T08:53:32.705Z,33.40
2022-08-03T08:56:35.741Z,33.70
2022-08-03T08:59:47.861Z,33.80
2022-08-03T09:02:50.800Z,34.00
2022-08-03T09:05:56.070Z,34.20
2022-08-03T09:08:58.293Z,33.90
2022-08-03T09:12:14.590Z,34.00
2022-08-03T09:15:33.148Z,33.90
2022-08-03T09:18:34.834Z,34.40
2022-08-03T09:21:36.535Z,34.60
2022-08-03T09:24:41.729Z,34.30
2022-08-03T09:27:44.957Z,34.30
2022-08-03T09:31:00.213Z,34.10
2022-08-03T09:34:07.309Z,34.00
2022-08-03T09:37:16.972Z,34.10
2022-08-03T09:40:35.228Z,34.00
2022-08-03T09:43:46.802Z,33.90
2022-08-03T09:46:50.162Z,33.70
2022-08-03T09:50:04.110Z,33.70
2022-08-03T09:53:05.801Z,33.50
2022-08-03T09:56:34.260Z,33.50
2022-08-03T09:59:31.360Z,33.30
2022-08-03T10:02:33.132Z,33.30
2022-08-03T10:05:34.808Z,33.50
2022-08-03T10:08:36.483Z,33.60
2022-08-03T10:11:42.003Z,33.40
2022-08-03T10:14:45.626Z,33.30
2022-08-03T10:17:47.349Z,33.40
2022-08-03T10:20:54.445Z,33.60
2022-08-03T10:23:56.797Z,33.70
2022-08-03T10:27:04.404Z,33.50
2022-08-03T10:30:08.937Z,33.50
2022-08-03T10:33:51.126Z,33.50
2022-08-03T10:36:41.088Z,33.60
2022-08-03T10:39:53.433Z,33.60
2022-08-03T10:42:59.799Z,33.50
2022-08-03T10:46:05.066Z,33.30
2022-08-03T10:49:17.055Z,33.30
2022-08-03T10:52:40.986Z,33.20
2022-08-03T10:56:05.612Z,33.00
2022-08-03T10:59:57.599Z,32.60
2022-08-03T11:03:15.721Z,32.70
2022-08-03T11:06:20.624Z,33.00
2022-08-03T11:09:22.409Z,33.20
2022-08-03T11:12:32.505Z,33.00
2022-08-03T11:15:34.858Z,32.80
2022-08-03T11:18:36.622Z,32.70
2022-08-03T11:21:50.742Z,32.60
2022-08-03T11:24:54.308Z,32.50
2022-08-03T11:28:34.566Z,32.30
2022-08-03T11:31:51.922Z,32.20
2022-08-03T11:35:12.562Z,32.10
2022-08-03T11:38:14.276Z,32.20
2022-08-03T11:41:33.545Z,32.20
2022-08-03T11:44:47.508Z,32.00
2022-08-03T11:47:52.937Z,32.00
2022-08-03T11:50:54.881Z,31.80
2022-08-03T11:54:02.733Z,31.90
2022-08-03T11:57:04.473Z,32.00
2022-08-03T12:00:29.361Z,31.80
2022-08-03T12:03:34.099Z,31.70
2022-08-03T12:06:54.872Z,31.70
2022-08-03T12:10:07.631Z,31.70
2022-08-03T12:14:28.864Z,31.70
2022-08-03T12:16:31.084Z,31.80
2022-08-03T12:19:42.802Z,31.90
2022-08-03T12:22:44.448Z,31.90
2022-08-03T12:25:47.255Z,31.80
2022-08-03T12:28:51.424Z,31.80
2022-08-03T12:31:53.162Z,31.80
2022-08-03T12:35:00.217Z,31.90
2022-08-03T12:38:03.021Z,31.90
2022-08-03T12:41:08.550Z,31.90
2022-08-03T12:44:10.372Z,31.80
2022-08-03T12:47:12.681Z,31.90
2022-08-03T12:50:25.085Z,31.90
2022-08-03T12:53:30.238Z,31.80
2022-08-03T12:56:32.207Z,31.90
2022-08-03T12:59:53.324Z,31.80
2022-08-03T13:03:38.226Z,31.80
2022-08-03T13:06:27.634Z,31.80
2022-08-03T13:09:32.059Z,31.60
2022-08-03T13:12:36.048Z,31.70
2022-08-03T13:15:47.604Z,31.70
2022-08-03T13:18:51.809Z,31.70
2022-08-03T13:22:04.119Z,31.60
2022-08-03T13:25:06.901Z,31.60
2022-08-03T13:28:13.811Z,31.60
2022-08-03T13:31:16.008Z,31.60
2022-08-03T13:34:23.168Z,31.60
2022-08-03T13:37:26.566Z,31.70
2022-08-03T13:40:36.753Z,31.60
2022-08-03T13:43:43.579Z,31.60
2022-08-03T13:46:46.250Z,31.70
2022-08-03T13:50:03.615Z,31.70
2022-08-03T13:53:05.301Z,31.60
2022-08-03T13:56:06.977Z,31.60
2022-08-03T13:59:10.918Z,31.50
2022-08-03T14:02:12.626Z,31.60
2022-08-03T14:05:14.302Z,31.60
2022-08-03T14:08:16.054Z,31.60
2022-08-03T14:11:18.470Z,31.60
2022-08-03T14:14:20.208Z,31.50
2022-08-03T14:17:42.364Z,31.50
2022-08-03T14:20:55.891Z,31.50
2022-08-03T14:23:58.483Z,31.40
2022-08-03T14:27:08.743Z,31.50
2022-08-03T14:30:11.817Z,31.50
2022-08-03T14:33:13.462Z,31.50
2022-08-03T14:36:15.187Z,31.50
2022-08-03T14:39:17.046Z,31.40
2022-08-03T14:42:20.222Z,31.40
2022-08-03T14:46:02.088Z,31.40
2022-08-03T14:50:37.186Z,31.30
2022-08-03T14:52:26.849Z,31.30
2022-08-03T14:55:28.815Z,31.20
2022-08-03T14:58:40.737Z,31.10
2022-08-03T15:02:02.603Z,31.10
2022-08-03T15:05:04.362Z,31.00
2022-08-03T15:08:09.170Z,31.00
2022-08-03T15:11:11.393Z,31.00
2022-08-03T15:14:13.568Z,31.00
2022-08-03T15:17:16.535Z,31.00
2022-08-03T15:20:36.441Z,31.00
2022-08-03T15:23:43.234Z,31.00
2022-08-03T15:26:44.953Z,30.90
2022-08-03T15:30:07.874Z,30.90
2022-08-03T15:33:08.417Z,30.90
2022-08-03T15:36:10.057Z,30.90
2022-08-03T15:39:11.841Z,30.90
2022-08-03T15:42:13.537Z,30.90
2022-08-03T15:45:17.811Z,30.90
2022-08-03T15:48:26.623Z,30.90
2022-08-03T15:51:28.458Z,30.90
2022-08-03T15:54:30.151Z,30.80
2022-08-03T15:57:31.869Z,30.80
2022-08-03T16:00:34.036Z,30.80
2022-08-03T16:03:35.995Z,30.80
2022-08-03T16:06:37.708Z,30.70
2022-08-03T16:09:43.055Z,30.70
2022-08-03T16:12:46.269Z,30.70
2022-08-03T16:15:51.136Z,30.70
2022-08-03T16:18:52.790Z,30.60
2022-08-03T16:21:54.461Z,30.60
2022-08-03T16:24:57.211Z,30.60
2022-08-03T16:28:07.804Z,30.60
2022-08-03T16:31:14.444Z,30.60
2022-08-03T16:34:16.107Z,30.60
2022-08-03T16:37:37.474Z,30.60
2022-08-03T16:40:39.556Z,30.50
2022-08-03T16:43:41.269Z,30.50
2022-08-03T16:46:44.643Z,30.50
2022-08-03T16:49:54.994Z,30.50
2022-08-03T16:52:58.053Z,30.40
2022-08-03T16:56:00.013Z,30.40
2022-08-03T16:59:03.856Z,30.30
2022-08-03T17:02:10.115Z,30.30
2022-08-03T17:05:12.811Z,30.30
2022-08-03T17:08:16.237Z,30.30
2022-08-03T17:11:20.757Z,30.20
2022-08-03T17:44:15.917Z,30.00
2022-08-03T17:47:19.604Z,30.10
2022-08-03T17:50:26.037Z,30.00
2022-08-03T17:53:43.925Z,29.90
2022-08-03T17:57:21.713Z,29.90
2022-08-03T18:00:42.850Z,29.80
2022-08-03T18:03:58.554Z,29.80
2022-08-03T18:07:11.149Z,29.70
2022-08-03T18:10:20.824Z,29.70
2022-08-03T18:13:24.668Z,29.70
2022-08-03T18:16:34.579Z,29.60
2022-08-03T18:20:02.407Z,29.50
